Time;durP1;ratioP1;P1;durP2;ratioP2;P2;SDS_P1;SDS_P2;PMS_P1;PMS_P2;Temp;Humidity;BMP_temperature;BMP_pressure;BME280_temperature;BME280_humidity;BME280_pressure;Samples;Min_cycle;Max_cycle;Signal;HPM_P1;HPM_P2
2022/12/06 00:01:28;;;;;;;7.90;5.70;;;;;;;8.28;93.85;97760.81;5087212;28;20369;-82
2022/12/06 00:03:57;;;;;;;7.57;5.60;;;;;;;8.18;94.13;97761.00;5087170;28;20757;-83
2022/12/06 00:06:26;;;;;;;6.60;5.00;;;;;;;8.16;94.70;97752.44;5087331;28;20292;-83
2022/12/06 00:08:54;;;;;;;7.73;4.80;;;;;;;7.94;94.60;97748.69;5087196;28;20663;-82
2022/12/06 00:11:24;;;;;;;8.20;5.53;;;;;;;7.94;94.83;97769.31;5088506;28;20258;-83
2022/12/06 00:13:53;;;;;;;11.13;5.40;;;;;;;7.83;95.89;97762.75;5087718;28;20257;-82
2022/12/06 00:16:21;;;;;;;10.80;6.50;;;;;;;8.06;96.19;97761.28;5087062;28;20578;-81
2022/12/06 00:27:25;;;;;;;10.07;6.13;;;;;;;7.03;97.21;97664.06;5024152;28;20204;-81
2022/12/06 00:29:52;;;;;;;8.10;5.43;;;;;;;7.53;98.49;97728.19;5024008;28;20524;-81
2022/12/06 00:32:19;;;;;;;11.57;6.00;;;;;;;7.72;98.36;97734.63;5023960;28;20269;-81
2022/12/06 00:34:46;;;;;;;9.73;5.97;;;;;;;7.69;98.19;97724.38;5024286;28;20194;-82
2022/12/06 00:37:13;;;;;;;10.20;5.57;;;;;;;7.78;97.85;97725.91;5024065;28;20209;-82
2022/12/06 00:39:41;;;;;;;11.30;6.00;;;;;;;7.59;98.23;97724.63;5024056;28;20206;-80
2022/12/06 00:42:08;;;;;;;7.73;5.50;;;;;;;7.62;98.64;97709.97;5023919;28;20204;-82
2022/12/06 00:55:54;;;;;;;8.67;5.83;;;;;;;7.82;96.59;97723.22;5086669;28;20196;-82
2022/12/06 01:06:04;;;;;;;12.60;6.30;;;;;;;7.93;96.40;97725.53;5087473;28;20281;-82
2022/12/06 01:09:29;;;;;;;15.50;7.27;;;;;;;7.86;97.19;97727.41;5092592;28;20214;-80
2022/12/06 01:11:57;;;;;;;14.00;7.10;;;;;;;7.58;96.61;97690.28;5088230;28;20244;-80
2022/12/06 01:14:24;;;;;;;12.87;7.50;;;;;;;7.70;97.14;97718.34;5086492;28;20204;-82
2022/12/06 01:16:51;;;;;;;16.37;8.27;;;;;;;7.80;97.25;97714.66;5086470;28;20206;-81
2022/12/06 01:19:18;;;;;;;17.87;8.70;;;;;;;7.87;97.17;97702.47;5086046;28;20197;-82
2022/12/06 01:21:47;;;;;;;18.70;9.40;;;;;;;7.94;96.87;97704.00;5086475;28;20338;-80
2022/12/06 01:24:14;;;;;;;11.90;8.27;;;;;;;8.04;96.24;97708.91;5086012;28;20207;-81
2022/12/06 01:26:41;;;;;;;13.77;8.70;;;;;;;7.93;96.17;97703.16;5086652;28;20200;-83
2022/12/06 01:29:08;;;;;;;16.40;8.50;;;;;;;7.74;96.60;97703.66;5086697;28;20191;-82
2022/12/06 01:31:35;;;;;;;15.63;8.73;;;;;;;7.77;97.22;97701.84;5068457;28;20713;-81
2022/12/06 01:34:12;;;;;;;19.93;10.00;;;;;;;7.62;98.29;97694.50;5086184;28;20207;-82
2022/12/06 01:36:39;;;;;;;19.93;9.33;;;;;;;7.48;98.47;97691.38;5088234;28;20203;-83
2022/12/06 01:39:09;;;;;;;20.57;9.87;;;;;;;7.59;98.17;97686.81;5090509;28;20215;-82
2022/12/06 01:41:37;;;;;;;21.17;10.43;;;;;;;7.83;97.87;97696.53;5090846;28;20204;-82
2022/12/06 01:44:05;;;;;;;18.50;10.03;;;;;;;7.88;97.17;97688.69;5090473;28;20967;-82
2022/12/06 01:46:37;;;;;;;18.13;9.53;;;;;;;7.67;97.08;97648.81;5090162;28;20215;-83
2022/12/06 01:49:07;;;;;;;20.93;10.57;;;;;;;7.90;96.35;97690.34;5090741;28;20200;-82
2022/12/06 01:51:35;;;;;;;21.20;10.27;;;;;;;7.76;97.20;97689.00;5090038;28;20242;-82
2022/12/06 01:54:06;;;;;;;20.77;9.87;;;;;;;7.45;97.99;97662.25;5090085;28;20211;-82
2022/12/06 01:56:33;;;;;;;19.57;9.60;;;;;;;7.73;97.57;97682.19;5090309;28;20195;-82
2022/12/06 01:59:00;;;;;;;19.93;9.80;;;;;;;7.67;97.52;97671.16;5089648;28;20243;-82
2022/12/06 02:01:29;;;;;;;19.23;9.70;;;;;;;7.66;98.30;97672.91;5090192;28;20551;-82
2022/12/06 02:03:59;;;;;;;21.00;10.30;;;;;;;7.55;98.06;97664.56;5089589;28;20645;-82
2022/12/06 02:06:28;;;;;;;19.93;10.13;;;;;;;7.60;97.92;97662.75;5090345;28;20204;-82
2022/12/06 02:09:00;;;;;;;22.53;11.17;;;;;;;7.46;99.28;97654.47;5089880;28;20224;-82
2022/12/06 02:11:27;;;;;;;22.70;9.67;;;;;;;7.53;98.29;97663.78;5089668;28;20198;-81
2022/12/06 02:14:03;;;;;;;23.13;11.33;;;;;;;7.64;99.52;97669.53;5089627;28;20636;-82
2022/12/06 02:16:52;;;;;;;21.63;10.63;;;;;;;7.48;99.64;97662.19;5089996;28;20233;-81
2022/12/06 02:19:47;;;;;;;25.77;12.23;;;;;;;7.49;99.13;97651.84;5089721;28;20196;-83
2022/12/06 02:22:18;;;;;;;24.50;11.40;;;;;;;7.30;99.28;97654.00;5089330;28;20196;-82
2022/12/06 02:25:20;;;;;;;24.60;11.20;;;;;;;7.59;99.82;97658.47;5089719;28;20294;-81
2022/12/06 02:28:07;;;;;;;26.97;11.37;;;;;;;7.40;99.55;97657.19;5082571;28;20210;-82
2022/12/06 02:30:40;;;;;;;28.00;12.67;;;;;;;7.54;98.87;97655.16;5074083;28;20595;-82
2022/12/06 02:33:14;;;;;;;27.70;12.60;;;;;;;7.67;97.96;97648.81;5055725;28;20239;-80
2022/12/06 02:35:54;;;;;;;26.27;12.73;;;;;;;7.68;98.27;97654.81;5068562;28;20242;-81
2022/12/06 02:38:34;;;;;;;30.97;14.33;;;;;;;7.80;97.87;97652.78;5068708;28;20269;-81
2022/12/06 02:41:09;;;;;;;32.70;12.77;;;;;;;7.67;96.76;97643.66;5068520;28;20199;-80
2022/12/06 02:43:41;;;;;;;23.93;12.27;;;;;;;7.74;97.55;97634.91;5068522;28;20203;-82
2022/12/06 02:46:12;;;;;;;27.97;12.57;;;;;;;7.94;96.64;97662.75;5068361;28;20219;-82
2022/12/06 02:48:41;;;;;;;22.67;11.47;;;;;;;7.88;96.75;97663.75;5068517;28;20211;-81
2022/12/06 02:51:14;;;;;;;25.37;11.27;;;;;;;7.88;96.06;97650.00;5068301;28;20678;-82
2022/12/06 02:53:46;;;;;;;25.73;12.53;;;;;;;7.83;96.39;97650.13;5068202;28;20228;-82
2022/12/06 02:56:16;;;;;;;23.10;12.67;;;;;;;7.85;95.74;97637.22;5068402;28;20204;-82
2022/12/06 02:58:43;;;;;;;24.57;11.00;;;;;;;7.78;96.24;97626.19;5068004;28;20247;-82
2022/12/06 03:01:31;;;;;;;25.00;12.80;;;;;;;8.00;96.14;97658.28;5067912;28;20278;-80
2022/12/06 03:04:11;;;;;;;23.90;10.47;;;;;;;8.06;96.00;97668.44;5070239;28;20242;-81
2022/12/06 03:06:57;;;;;;;20.63;11.20;;;;;;;8.10;95.00;97670.06;5068901;28;20241;-82
2022/12/06 03:09:42;;;;;;;25.50;12.27;;;;;;;7.86;95.46;97655.22;5050115;28;20262;-81
2022/12/06 03:12:26;;;;;;;23.77;11.83;;;;;;;7.64;97.08;97668.66;5067825;28;20225;-81
2022/12/06 03:15:05;;;;;;;21.27;11.27;;;;;;;7.46;98.45;97664.78;5068431;28;20212;-82
2022/12/06 03:18:01;;;;;;;23.73;12.80;;;;;;;7.56;98.38;97657.69;5067690;28;20191;-81
2022/12/06 03:20:41;;;;;;;32.70;13.07;;;;;;;7.30;99.41;97655.72;5054200;28;20203;-81
2022/12/06 03:23:14;;;;;;;31.67;11.87;;;;;;;7.48;98.84;97665.59;5067226;28;20586;-81
2022/12/06 03:25:44;;;;;;;25.67;13.00;;;;;;;7.43;98.69;97640.81;5067666;28;20209;-82
2022/12/06 03:28:14;;;;;;;34.37;14.03;;;;;;;7.47;98.90;97656.19;5067946;28;20197;-82
2022/12/06 03:30:46;;;;;;;32.23;12.63;;;;;;;7.30;99.36;97648.00;5067621;28;20202;-83
2022/12/06 03:33:15;;;;;;;31.50;13.00;;;;;;;7.38;100.00;97666.69;5067420;28;20232;-82
2022/12/06 03:35:46;;;;;;;38.43;14.90;;;;;;;7.46;99.85;97649.31;5067205;28;20201;-81
2022/12/06 03:38:20;;;;;;;43.27;22.20;;;;;;;7.54;99.86;97657.75;5067594;28;20287;-81
2022/12/06 03:40:51;;;;;;;35.97;15.00;;;;;;;7.58;99.36;97656.78;5067370;28;20232;-83
2022/12/06 03:43:18;;;;;;;29.23;13.80;;;;;;;7.45;98.86;97657.09;5067152;28;20228;-84
2022/12/06 03:45:59;;;;;;;29.40;14.17;;;;;;;7.62;98.47;97658.41;5067659;28;20202;-84
2022/12/06 03:48:34;;;;;;;29.83;14.73;;;;;;;7.60;98.45;97654.16;5067735;28;20188;-83
2022/12/06 03:51:06;;;;;;;33.10;13.60;;;;;;;7.78;98.51;97653.72;5067228;28;20300;-81
2022/12/06 03:53:33;;;;;;;36.87;15.73;;;;;;;7.69;97.20;97646.19;5073105;28;20246;-81
2022/12/06 03:56:00;;;;;;;25.57;14.20;;;;;;;7.88;97.41;97657.75;5056614;28;20192;-81
2022/12/06 03:58:27;;;;;;;30.57;14.23;;;;;;;7.97;96.87;97657.53;5071742;28;20611;-82
2022/12/06 04:00:54;;;;;;;24.60;12.67;;;;;;;7.94;96.85;97649.84;5071255;28;20304;-81
2022/12/06 04:03:20;;;;;;;30.80;13.77;;;;;;;7.98;96.79;97648.88;5068089;28;20276;-81
2022/12/06 04:05:47;;;;;;;28.70;14.07;;;;;;;7.99;96.31;97651.44;5067651;28;20302;-81
2022/12/06 04:08:14;;;;;;;26.67;13.10;;;;;;;8.03;96.10;97652.22;5067638;28;20193;-83
2022/12/06 04:10:41;;;;;;;27.87;13.90;;;;;;;7.94;95.83;97647.28;5066961;28;20692;-81
2022/12/06 04:13:08;;;;;;;35.57;17.27;;;;;;;8.02;96.06;97653.06;5067267;28;20323;-82
2022/12/06 04:15:37;;;;;;;30.07;14.93;;;;;;;7.78;95.77;97618.47;5066938;28;20193;-81
2022/12/06 04:18:15;;;;;;;27.27;13.60;;;;;;;7.94;95.88;97649.84;5067039;28;20590;-81
2022/12/06 04:23:46;;;;;;;32.73;15.17;;;;;;;8.00;95.46;97658.28;5048988;28;20199;-82
2022/12/06 04:26:16;;;;;;;36.83;14.37;;;;;;;7.99;96.52;97656.59;5066642;28;20263;-82
2022/12/06 04:39:46;;;;;;;36.67;14.67;;;;;;;7.98;95.51;97652.31;5077916;28;20644;-83
2022/12/06 04:44:59;;;;;;;26.83;14.30;;;;;;;7.66;97.53;97644.56;5075134;28;20195;-81
2022/12/06 04:47:25;;;;;;;40.03;15.30;;;;;;;7.75;96.48;97634.00;5066563;28;20195;-82
2022/12/06 04:49:52;;;;;;;44.80;18.83;;;;;;;7.88;96.65;97652.59;5066405;28;20193;-80
2022/12/06 04:52:19;;;;;;;46.97;17.93;;;;;;;7.73;96.45;97653.00;5066620;28;20216;-81
2022/12/06 04:54:46;;;;;;;40.93;17.80;;;;;;;7.73;97.76;97647.84;5075832;28;20292;-82
2022/12/06 04:57:15;;;;;;;33.47;15.00;;;;;;;7.72;98.20;97651.28;5067776;28;20826;-83
2022/12/06 04:59:44;;;;;;;32.27;14.83;;;;;;;7.70;97.40;97642.75;5067437;28;20263;-82
2022/12/06 05:02:14;;;;;;;32.40;14.27;;;;;;;7.54;98.14;97633.69;5066420;28;20694;-82
2022/12/06 05:04:41;;;;;;;30.57;14.43;;;;;;;7.49;98.04;97635.53;5048309;28;20684;-81
2022/12/06 05:07:10;;;;;;;35.03;13.57;;;;;;;7.70;98.06;97648.75;5066536;28;20264;-81
2022/12/06 05:09:38;;;;;;;30.70;13.83;;;;;;;7.80;98.20;97633.88;5066756;28;20631;-81
2022/12/06 05:12:05;;;;;;;33.20;15.13;;;;;;;7.75;96.74;97626.25;5069016;28;20226;-82
2022/12/06 05:14:32;;;;;;;36.13;16.03;;;;;;;7.84;95.88;97649.25;5070609;28;20205;-82
2022/12/06 05:16:59;;;;;;;32.20;15.37;;;;;;;7.89;95.90;97638.81;5070411;28;20257;-82
2022/12/06 05:19:26;;;;;;;29.20;15.57;;;;;;;8.05;96.39;97656.44;5070384;28;20196;-81
2022/12/06 05:21:53;;;;;;;24.90;13.83;;;;;;;8.00;95.48;97653.13;5070145;28;20213;-82
2022/12/06 05:24:20;;;;;;;30.07;14.87;;;;;;;7.97;95.61;97647.22;5070129;28;20201;-81
2022/12/06 05:26:47;;;;;;;29.10;16.07;;;;;;;7.49;96.45;97618.34;5071346;28;20212;-81
2022/12/06 05:29:14;;;;;;;23.80;13.27;;;;;;;7.72;96.02;97640.97;5074861;28;20664;-82
2022/12/06 05:31:41;;;;;;;26.23;13.50;;;;;;;7.80;96.28;97650.22;5074891;28;20234;-81
2022/12/06 05:34:08;;;;;;;26.10;13.23;;;;;;;7.76;96.02;97627.97;5074011;28;20781;-82
2022/12/06 05:36:35;;;;;;;25.43;13.73;;;;;;;7.94;95.33;97632.66;5070505;28;20592;-82
2022/12/06 05:39:03;;;;;;;25.90;13.80;;;;;;;8.01;95.19;97641.09;5070297;28;20205;-83
2022/12/06 05:41:30;;;;;;;31.33;16.63;;;;;;;7.96;94.84;97633.47;5069525;28;20208;-83
2022/12/06 05:43:56;;;;;;;33.67;16.67;;;;;;;7.96;95.93;97638.63;5069745;28;20280;-83
2022/12/06 05:46:23;;;;;;;40.20;18.67;;;;;;;7.93;95.64;97636.09;5052052;28;20197;-82
2022/12/06 05:48:50;;;;;;;31.83;16.47;;;;;;;7.52;96.43;97607.13;5069841;28;20189;-83
2022/12/06 05:51:17;;;;;;;25.50;14.50;;;;;;;7.53;97.01;97635.41;5069414;28;20643;-84
2022/12/06 05:53:47;;;;;;;30.80;16.57;;;;;;;7.78;96.75;97636.50;5083815;28;20227;-80
2022/12/06 05:56:14;;;;;;;33.53;17.90;;;;;;;7.86;96.14;97636.31;5091383;28;20198;-82
2022/12/06 05:58:41;;;;;;;38.77;21.37;;;;;;;7.90;95.37;97635.34;5089724;28;20266;-83
2022/12/06 06:01:08;;;;;;;38.20;20.90;;;;;;;7.87;94.74;97623.38;5090611;28;20286;-84
2022/12/06 06:03:36;;;;;;;29.07;16.00;;;;;;;7.76;95.87;97642.59;5089414;28;20201;-81
2022/12/06 06:06:11;;;;;;;28.63;16.33;;;;;;;7.95;95.61;97649.84;5089239;28;20667;-80
2022/12/06 06:08:38;;;;;;;30.97;17.53;;;;;;;8.09;95.14;97647.75;5071562;28;20201;-81
2022/12/06 06:11:05;;;;;;;26.03;15.83;;;;;;;8.20;94.44;97650.88;5089375;28;20198;-82
2022/12/06 06:13:32;;;;;;;30.13;18.13;;;;;;;8.24;94.19;97661.97;5089185;28;20326;-81
2022/12/06 06:15:59;;;;;;;34.13;19.43;;;;;;;8.22;93.71;97658.59;5089791;28;20701;-82
2022/12/06 06:18:26;;;;;;;31.20;17.57;;;;;;;8.15;94.43;97657.03;5089434;28;20187;-83
2022/12/06 06:20:57;;;;;;;31.13;16.63;;;;;;;8.21;94.04;97660.31;5089235;28;20204;-82
2022/12/06 06:23:25;;;;;;;33.07;17.13;;;;;;;8.24;93.22;97642.16;5088653;28;20188;-82
2022/12/06 06:25:53;;;;;;;26.17;14.83;;;;;;;8.24;93.22;97646.50;5088838;28;20222;-82
2022/12/06 06:28:20;;;;;;;23.27;12.43;;;;;;;8.31;92.71;97654.91;5089157;28;20192;-81
2022/12/06 06:30:47;;;;;;;24.80;13.83;;;;;;;8.25;92.94;97643.03;5073055;28;20619;-81
2022/12/06 06:33:15;;;;;;;25.37;13.67;;;;;;;8.39;92.54;97647.84;5068611;28;20259;-82
2022/12/06 06:35:42;;;;;;;23.43;13.30;;;;;;;8.18;92.61;97620.84;5050911;28;20737;-81
2022/12/06 06:38:09;;;;;;;24.23;15.17;;;;;;;8.42;92.09;97643.44;5072654;28;20205;-81
2022/12/06 06:40:36;;;;;;;22.67;13.33;;;;;;;8.44;92.63;97640.81;5068767;28;20745;-82
2022/12/06 06:43:24;;;;;;;21.77;12.67;;;;;;;8.47;92.24;97657.03;5068434;28;20207;-82
2022/12/06 06:45:54;;;;;;;24.00;12.87;;;;;;;8.53;91.88;97656.03;5068818;28;20207;-83
2022/12/06 06:48:22;;;;;;;25.87;14.90;;;;;;;8.52;91.95;97644.00;5068744;28;20229;-84
2022/12/06 06:50:50;;;;;;;28.07;14.37;;;;;;;8.47;91.47;97648.47;5068787;28;20276;-83
2022/12/06 06:53:26;;;;;;;26.73;15.77;;;;;;;8.55;91.63;97654.28;5070331;28;20231;-83
2022/12/06 06:55:53;;;;;;;22.43;12.87;;;;;;;8.41;91.74;97653.81;5068685;28;20211;-83
2022/12/06 06:59:00;;;;;;;29.23;16.33;;;;;;;8.36;91.87;97641.03;5073901;28;20229;-82
2022/12/06 07:02:21;;;;;;;26.43;16.97;;;;;;;8.58;91.54;97647.28;5067717;28;20264;-81
2022/12/06 07:05:44;;;;;;;27.27;14.93;;;;;;;8.08;91.89;97609.91;5067165;28;20205;-80
2022/12/06 07:09:05;;;;;;;30.73;16.30;;;;;;;8.36;92.94;97640.16;5069609;28;20282;-81
2022/12/06 07:12:25;;;;;;;30.17;16.27;;;;;;;8.22;92.15;97628.44;5071012;28;20358;-81
2022/12/06 07:15:46;;;;;;;30.80;16.43;;;;;;;8.24;92.36;97637.00;5070651;28;20223;-81
2022/12/06 07:19:07;;;;;;;29.90;17.67;;;;;;;8.43;92.96;97632.22;5067625;28;20250;-81
2022/12/06 07:22:27;;;;;;;29.80;15.70;;;;;;;8.41;92.66;97633.16;5066505;28;20196;-80
2022/12/06 07:25:48;;;;;;;27.50;15.97;;;;;;;8.54;91.94;97632.75;5048672;28;20221;-81
2022/12/06 07:29:09;;;;;;;34.53;20.43;;;;;;;8.73;90.97;97635.66;5066963;28;20189;-82
2022/12/06 07:32:30;;;;;;;39.80;20.77;;;;;;;8.76;90.89;97640.72;5066855;28;20196;-83
2022/12/06 07:35:51;;;;;;;28.43;16.57;;;;;;;8.70;90.78;97630.56;5065871;28;20185;-81
2022/12/06 07:39:12;;;;;;;33.43;17.33;;;;;;;8.74;90.21;97645.09;5049469;28;20193;-81
2022/12/06 07:46:11;;;;;;;31.00;17.43;;;;;;;8.74;90.58;97648.53;5066590;28;20214;-81
2022/12/06 07:49:32;;;;;;;34.07;18.93;;;;;;;8.79;90.72;97641.50;5068965;28;20208;-81
2022/12/06 07:52:53;;;;;;;33.73;17.63;;;;;;;8.85;90.36;97637.88;5066469;28;20201;-82
2022/12/06 07:56:13;;;;;;;28.90;17.97;;;;;;;8.75;89.89;97639.06;5065869;28;20189;-81
2022/12/06 07:59:34;;;;;;;32.97;19.00;;;;;;;8.80;89.92;97637.16;5065709;28;20229;-80
2022/12/06 08:02:58;;;;;;;33.07;20.30;;;;;;;8.87;90.53;97630.94;5064494;28;20193;-81
2022/12/06 08:06:18;;;;;;;33.50;19.20;;;;;;;8.96;89.58;97625.50;5065885;28;20256;-81
2022/12/06 08:09:39;;;;;;;35.07;20.87;;;;;;;9.01;89.25;97631.38;5066025;28;20284;-81
2022/12/06 08:13:02;;;;;;;31.93;18.80;;;;;;;9.03;88.68;97630.44;5065979;28;20185;-82
2022/12/06 08:16:23;;;;;;;33.50;18.90;;;;;;;8.96;88.77;97623.75;5064267;28;20289;-81
2022/12/06 08:19:45;;;;;;;33.03;20.20;;;;;;;9.06;89.13;97637.25;5065186;28;20192;-81
2022/12/06 08:23:06;;;;;;;35.40;20.37;;;;;;;8.96;87.96;97622.94;5065798;28;20195;-82
2022/12/06 08:26:26;;;;;;;36.60;19.27;;;;;;;9.14;88.13;97622.38;5065409;28;20236;-82
2022/12/06 08:29:47;;;;;;;37.37;20.60;;;;;;;9.09;88.41;97613.91;5051837;28;20200;-81
2022/12/06 08:32:29;;;;;;;35.00;19.37;;;;;;;9.17;87.59;97637.75;5075777;28;20193;-82
2022/12/06 08:34:56;;;;;;;30.57;17.63;;;;;;;9.08;86.90;97614.81;5085026;28;20689;-82
2022/12/06 08:38:03;;;;;;;32.13;18.00;;;;;;;9.10;86.69;97597.53;5086572;28;20636;-81
2022/12/06 08:44:25;;;;;;;31.00;18.03;;;;;;;9.36;86.54;97597.53;5065635;28;20189;-82
2022/12/06 08:46:54;;;;;;;33.17;18.53;;;;;;;9.39;86.34;97602.63;5072111;28;20234;-82
2022/12/06 08:49:23;;;;;;;28.67;18.03;;;;;;;9.32;86.38;97589.91;5068610;28;20917;-83
2022/12/06 08:51:50;;;;;;;34.63;18.83;;;;;;;9.33;86.39;97597.66;5086818;28;20216;-83
2022/12/06 08:54:23;;;;;;;36.13;19.53;;;;;;;9.35;86.25;97601.03;5085992;28;20243;-83
2022/12/06 08:56:50;;;;;;;34.27;18.97;;;;;;;9.38;85.08;97590.56;5078432;28;20691;-83
2022/12/06 08:59:18;;;;;;;25.00;13.53;;;;;;;9.38;82.45;97589.72;5074927;28;20272;-82
2022/12/06 09:01:46;;;;;;;28.37;15.60;;;;;;;9.20;82.90;97593.75;5066433;28;20193;-83
2022/12/06 09:04:14;;;;;;;26.57;14.70;;;;;;;9.27;82.26;97587.50;5066097;28;20229;-82
2022/12/06 09:06:42;;;;;;;26.40;13.97;;;;;;;9.28;83.03;97584.00;5065926;28;20207;-83
2022/12/06 09:09:11;;;;;;;24.00;13.93;;;;;;;9.23;82.76;97585.91;5066134;28;20815;-83
2022/12/06 09:11:39;;;;;;;29.13;16.30;;;;;;;9.18;83.07;97584.34;5065997;28;20201;-82
2022/12/06 09:14:08;;;;;;;26.17;15.37;;;;;;;9.30;83.61;97571.88;5065313;28;20275;-84
2022/12/06 09:16:35;;;;;;;28.40;15.93;;;;;;;9.24;84.00;97561.75;5065733;28;20517;-82
2022/12/06 09:19:03;;;;;;;30.20;15.20;;;;;;;9.41;83.30;97556.88;5066070;28;20208;-83
2022/12/06 09:21:30;;;;;;;27.50;15.47;;;;;;;9.18;83.80;97540.41;5065612;28;20250;-83
2022/12/06 09:23:59;;;;;;;21.67;13.37;;;;;;;9.32;82.18;97552.00;5075036;28;20269;-84
2022/12/06 09:26:27;;;;;;;20.17;12.27;;;;;;;9.25;82.47;97550.53;5068306;28;20667;-83
2022/12/06 09:28:55;;;;;;;23.63;13.80;;;;;;;9.18;83.67;97536.09;5065362;28;20214;-84
2022/12/06 09:31:24;;;;;;;24.07;14.13;;;;;;;9.39;82.56;97550.06;5065488;28;20197;-83
2022/12/06 09:33:51;;;;;;;21.07;12.53;;;;;;;9.13;81.20;97501.81;5065087;28;20252;-83
2022/12/06 09:36:29;;;;;;;22.83;14.30;;;;;;;9.31;81.32;97526.22;5065555;28;20332;-84
2022/12/06 09:39:04;;;;;;;21.30;12.53;;;;;;;9.56;82.13;97529.69;5065613;28;20205;-84
2022/12/06 09:41:58;;;;;;;20.77;13.43;;;;;;;9.47;81.20;97527.38;5046796;28;20192;-83
2022/12/06 09:44:44;;;;;;;20.70;12.33;;;;;;;9.52;80.13;97530.69;5065792;28;20645;-82
2022/12/06 09:47:33;;;;;;;20.50;12.70;;;;;;;9.53;80.38;97522.88;5066941;28;20197;-83
2022/12/06 09:50:31;;;;;;;26.67;15.93;;;;;;;9.64;80.95;97523.31;5065766;28;20189;-85
2022/12/06 09:53:19;;;;;;;28.03;13.90;;;;;;;9.65;80.53;97517.28;5065139;28;20217;-84
2022/12/06 09:56:16;;;;;;;25.20;12.90;;;;;;;9.66;79.94;97515.53;5065330;28;20664;-83
2022/12/06 09:59:10;;;;;;;19.60;12.30;;;;;;;9.56;79.47;97512.41;5069447;28;20555;-84
2022/12/06 10:01:49;;;;;;;21.37;11.37;;;;;;;9.48;80.03;97506.66;5069261;28;20182;-83
2022/12/06 10:04:36;;;;;;;24.90;13.50;;;;;;;9.64;80.71;97499.22;5069580;28;20197;-82
2022/12/06 10:07:18;;;;;;;27.50;15.00;;;;;;;9.63;80.52;97492.34;5068719;28;20326;-83
2022/12/06 10:10:12;;;;;;;23.07;14.07;;;;;;;9.63;80.43;97505.28;5069101;28;20493;-83
2022/12/06 10:13:33;;;;;;;22.63;12.90;;;;;;;9.69;79.83;97487.81;5072554;28;20235;-82
2022/12/06 10:16:14;;;;;;;23.93;12.87;;;;;;;9.78;80.03;97492.69;4967317;28;20228;-83
2022/12/06 10:18:47;;;;;;;26.67;15.10;;;;;;;9.73;79.19;97481.63;5070179;28;20212;-83
2022/12/06 10:21:40;;;;;;;24.17;13.87;;;;;;;9.62;79.49;97470.81;5073101;28;20220;-84
2022/12/06 10:24:16;;;;;;;29.03;15.17;;;;;;;9.78;79.91;97482.34;5083158;28;20625;-84
2022/12/06 10:26:54;;;;;;;27.17;14.53;;;;;;;9.90;79.57;97475.88;5088781;28;20200;-84
2022/12/06 10:29:32;;;;;;;25.13;13.77;;;;;;;9.80;79.52;97459.84;5067481;28;20207;-84
2022/12/06 10:32:11;;;;;;;31.73;16.43;;;;;;;9.82;79.35;97463.22;5077849;28;20264;-83
2022/12/06 10:34:47;;;;;;;29.00;15.10;;;;;;;9.93;79.30;97472.34;5070818;28;20715;-83
2022/12/06 10:37:42;;;;;;;22.63;13.20;;;;;;;9.82;79.09;97468.41;5068069;28;20183;-83
2022/12/06 10:40:27;;;;;;;20.83;11.03;;;;;;;9.63;77.60;97451.84;5068675;28;20279;-84
2022/12/06 10:43:02;;;;;;;27.40;14.83;;;;;;;9.75;78.59;97473.81;5050681;28;20304;-84
2022/12/06 10:48:53;;;;;;;29.67;15.30;;;;;;;9.70;79.27;97448.16;5068309;28;20189;-84
2022/12/06 10:51:30;;;;;;;28.83;15.53;;;;;;;9.72;79.03;97440.31;5067915;28;20304;-83
2022/12/06 10:54:06;;;;;;;28.17;14.10;;;;;;;9.74;79.58;97454.03;5034109;28;20231;-83
2022/12/06 10:56:39;;;;;;;30.50;13.70;;;;;;;9.90;78.75;97446.56;5067729;28;20203;-82
2022/12/06 10:59:38;;;;;;;25.07;14.20;;;;;;;9.98;77.96;97449.72;5067546;28;20680;-83
2022/12/06 11:02:34;;;;;;;23.50;14.30;;;;;;;9.92;77.99;97447.34;5068056;28;20288;-83
2022/12/06 11:05:13;;;;;;;27.57;14.53;;;;;;;9.98;78.13;97422.09;5068308;28;20197;-82
2022/12/06 11:07:47;;;;;;;25.73;14.60;;;;;;;9.90;77.64;97423.28;5067906;28;20236;-83
2022/12/06 11:10:34;;;;;;;26.90;14.30;;;;;;;10.03;77.65;97440.03;5034239;28;20207;-84
2022/12/06 11:13:08;;;;;;;28.40;14.73;;;;;;;10.01;78.05;97416.81;5067409;28;20189;-83
2022/12/06 11:15:39;;;;;;;26.93;14.50;;;;;;;9.99;77.69;97420.38;5068061;28;20684;-81
2022/12/06 11:18:12;;;;;;;25.53;14.67;;;;;;;9.91;77.64;97412.06;5067313;28;20613;-82
2022/12/06 11:20:48;;;;;;;27.77;15.80;;;;;;;9.81;77.27;97401.19;5067116;28;20671;-83
2022/12/06 11:23:32;;;;;;;27.00;14.93;;;;;;;10.00;76.97;97409.09;5067169;28;20714;-83
2022/12/06 11:26:10;;;;;;;20.33;12.07;;;;;;;9.79;76.10;97408.16;5074292;28;20208;-84
2022/12/06 11:28:42;;;;;;;18.30;11.57;;;;;;;9.60;76.59;97384.69;5079127;28;20225;-85
2022/12/06 11:31:22;;;;;;;24.33;12.43;;;;;;;9.68;76.41;97390.47;5067220;28;20657;-82
2022/12/06 11:33:49;;;;;;;23.17;12.83;;;;;;;9.76;77.17;97403.09;5054634;28;20243;-83
2022/12/06 11:36:16;;;;;;;22.90;13.83;;;;;;;9.77;76.61;97397.03;5073068;28;20201;-84
2022/12/06 11:38:44;;;;;;;28.07;13.67;;;;;;;9.88;75.92;97375.94;5085252;28;20722;-81
2022/12/06 11:41:19;;;;;;;18.20;10.67;;;;;;;9.94;74.78;97388.63;5069308;28;20644;-83
2022/12/06 11:43:47;;;;;;;21.13;10.90;;;;;;;9.75;74.93;97368.63;5087515;28;20207;-81
2022/12/06 11:46:14;;;;;;;20.73;12.30;;;;;;;9.79;75.98;97383.13;5087835;28;20701;-82
2022/12/06 11:48:42;;;;;;;16.27;9.80;;;;;;;9.89;73.62;97387.97;5087963;28;20299;-81
2022/12/06 11:51:23;;;;;;;23.90;14.47;;;;;;;9.69;74.35;97361.09;5087020;28;20295;-83
2022/12/06 11:53:59;;;;;;;16.30;10.47;;;;;;;9.78;74.03;97381.47;5087113;28;20224;-80
2022/12/06 11:56:29;;;;;;;20.27;12.30;;;;;;;9.71;73.51;97372.25;5087272;28;20563;-79
2022/12/06 11:59:25;;;;;;;17.37;10.60;;;;;;;9.76;73.26;97380.69;5087107;28;20226;-81
2022/12/06 12:01:59;;;;;;;26.40;10.73;;;;;;;9.91;73.47;97376.69;5086940;28;20539;-80
2022/12/06 12:04:35;;;;;;;23.47;13.53;;;;;;;9.96;73.31;97371.31;5087062;28;20196;-82
2022/12/06 12:07:03;;;;;;;25.47;12.57;;;;;;;10.07;72.84;97371.75;5087030;28;20203;-82
2022/12/06 12:09:43;;;;;;;21.77;13.10;;;;;;;10.13;72.62;97358.59;5086577;28;20291;-82
2022/12/06 12:12:22;;;;;;;19.40;11.93;;;;;;;10.16;72.60;97368.84;5086906;28;20640;-81
2022/12/06 12:14:57;;;;;;;18.73;10.50;;;;;;;10.18;71.87;97367.88;5087020;28;20266;-82
2022/12/06 12:17:30;;;;;;;27.50;11.73;;;;;;;10.20;72.04;97352.31;5086934;28;20203;-82
2022/12/06 12:20:04;;;;;;;22.90;11.93;;;;;;;10.24;72.53;97366.81;5086458;28;20698;-81
2022/12/06 12:22:37;;;;;;;18.47;10.93;;;;;;;10.13;72.18;97336.16;5086998;28;20192;-81
2022/12/06 12:25:26;;;;;;;16.93;10.47;;;;;;;10.15;72.50;97351.63;5086789;28;20208;-81
2022/12/06 12:27:59;;;;;;;19.37;10.70;;;;;;;10.14;72.12;97342.19;5087090;28;20215;-82
2022/12/06 12:30:39;;;;;;;15.93;11.20;;;;;;;10.29;72.03;97336.41;5086428;28;20225;-82
2022/12/06 12:33:06;;;;;;;20.70;11.60;;;;;;;10.32;71.84;97339.72;5086720;28;20191;-82
2022/12/06 12:35:51;;;;;;;22.50;12.33;;;;;;;10.22;71.85;97319.44;5089231;28;20224;-82
2022/12/06 12:38:24;;;;;;;20.37;11.40;;;;;;;10.23;71.99;97326.28;5073555;28;20565;-80
2022/12/06 12:40:56;;;;;;;24.67;12.87;;;;;;;10.30;71.27;97330.31;5092977;28;20195;-81
2022/12/06 12:43:32;;;;;;;20.53;11.27;;;;;;;10.14;70.95;97318.91;5071877;28;20196;-82
2022/12/06 12:46:10;;;;;;;18.17;12.17;;;;;;;10.23;71.87;97342.66;5087296;28;20219;-80
2022/12/06 12:48:40;;;;;;;21.30;11.40;;;;;;;10.18;71.21;97346.34;5086392;28;20588;-80
2022/12/06 12:51:27;;;;;;;19.23;11.10;;;;;;;10.17;71.56;97337.72;5086501;28;20819;-80
2022/12/06 12:54:00;;;;;;;20.93;11.50;;;;;;;10.05;71.26;97339.94;5087358;28;20196;-79
2022/12/06 12:56:31;;;;;;;16.73;9.87;;;;;;;10.20;70.94;97340.19;5088098;28;20192;-79
2022/12/06 12:59:01;;;;;;;21.23;11.70;;;;;;;10.18;71.42;97313.53;5069014;28;20294;-81
2022/12/06 13:01:53;;;;;;;19.63;11.97;;;;;;;10.24;70.93;97340.94;5086810;28;20189;-79
2022/12/06 13:04:35;;;;;;;24.80;13.23;;;;;;;10.27;71.34;97333.88;5086919;28;20247;-82
2022/12/06 13:07:05;;;;;;;19.83;11.50;;;;;;;10.35;71.29;97330.97;5087272;28;20197;-80
2022/12/06 13:09:37;;;;;;;21.27;11.77;;;;;;;10.36;70.46;97319.72;5086283;28;20644;-77
2022/12/06 13:12:11;;;;;;;17.97;10.40;;;;;;;10.47;70.49;97328.72;5085872;28;20196;-77